sensor_id;sensor_type;location;lat;lon;timestamp;P1;durP1;ratioP1;P2;durP2;ratioP2
63320;SDS011;49449;48.800;9.534;2023-03-01T00:02:25;13.38;;;9.63;;
63320;SDS011;49449;48.800;9.534;2023-03-01T00:04:53;14.75;;;10.35;;
63320;SDS011;49449;48.800;9.534;2023-03-01T00:07:20;12.93;;;9.35;;
63320;SDS011;49449;48.800;9.534;2023-03-01T00:09:48;13.93;;;9.23;;
63320;SDS011;49449;48.800;9.534;2023-03-01T00:12:16;15.00;;;10.93;;
63320;SDS011;49449;48.800;9.534;2023-03-01T00:14:44;16.23;;;12.30;;
63320;SDS011;49449;48.800;9.534;2023-03-01T00:17:13;17.17;;;12.63;;
63320;SDS011;49449;48.800;9.534;2023-03-01T00:19:41;16.52;;;12.05;;
63320;SDS011;49449;48.800;9.534;2023-03-01T00:22:08;12.55;;;9.73;;
63320;SDS011;49449;48.800;9.534;2023-03-01T00:24:36;16.58;;;11.77;;
63320;SDS011;49449;48.800;9.534;2023-03-01T00:27:04;18.30;;;13.88;;
63320;SDS011;49449;48.800;9.534;2023-03-01T00:29:32;16.60;;;11.35;;
63320;SDS011;49449;48.800;9.534;2023-03-01T00:32:00;15.95;;;11.57;;
63320;SDS011;49449;48.800;9.534;2023-03-01T00:34:29;14.27;;;9.52;;
63320;SDS011;49449;48.800;9.534;2023-03-01T00:36:57;20.35;;;12.43;;
63320;SDS011;49449;48.800;9.534;2023-03-01T00:39:31;24.05;;;14.65;;
63320;SDS011;49449;48.800;9.534;2023-03-01T00:41:59;27.83;;;16.67;;
63320;SDS011;49449;48.800;9.534;2023-03-01T00:44:27;26.02;;;15.70;;
63320;SDS011;49449;48.800;9.534;2023-03-01T00:46:55;20.40;;;13.60;;
63320;SDS011;49449;48.800;9.534;2023-03-01T00:49:23;20.02;;;12.93;;
63320;SDS011;49449;48.800;9.534;2023-03-01T00:51:55;18.35;;;12.18;;
63320;SDS011;49449;48.800;9.534;2023-03-01T00:54:23;18.35;;;12.43;;
63320;SDS011;49449;48.800;9.534;2023-03-01T00:56:50;20.35;;;13.15;;
63320;SDS011;49449;48.800;9.534;2023-03-01T00:59:18;17.33;;;12.45;;
63320;SDS011;49449;48.800;9.534;2023-03-01T01:01:46;17.98;;;12.60;;
63320;SDS011;49449;48.800;9.534;2023-03-01T01:04:14;15.63;;;11.32;;
63320;SDS011;49449;48.800;9.534;2023-03-01T01:06:43;15.93;;;11.93;;
63320;SDS011;49449;48.800;9.534;2023-03-01T01:09:13;17.70;;;11.57;;
63320;SDS011;49449;48.800;9.534;2023-03-01T01:11:44;18.83;;;12.55;;
63320;SDS011;49449;48.800;9.534;2023-03-01T01:14:13;16.38;;;11.48;;
63320;SDS011;49449;48.800;9.534;2023-03-01T01:16:41;17.27;;;13.55;;
63320;SDS011;49449;48.800;9.534;2023-03-01T01:19:09;16.98;;;12.82;;
63320;SDS011;49449;48.800;9.534;2023-03-01T01:21:39;16.85;;;11.82;;
63320;SDS011;49449;48.800;9.534;2023-03-01T01:24:09;14.75;;;12.05;;
63320;SDS011;49449;48.800;9.534;2023-03-01T01:26:38;16.45;;;11.52;;
63320;SDS011;49449;48.800;9.534;2023-03-01T01:29:06;16.25;;;12.85;;
63320;SDS011;49449;48.800;9.534;2023-03-01T01:31:35;16.85;;;12.68;;
63320;SDS011;49449;48.800;9.534;2023-03-01T01:34:05;15.57;;;11.32;;
63320;SDS011;49449;48.800;9.534;2023-03-01T01:36:34;17.70;;;13.38;;
63320;SDS011;49449;48.800;9.534;2023-03-01T01:39:02;17.92;;;12.40;;
63320;SDS011;49449;48.800;9.534;2023-03-01T01:41:30;18.65;;;13.50;;
63320;SDS011;49449;48.800;9.534;2023-03-01T01:44:13;18.30;;;13.43;;
63320;SDS011;49449;48.800;9.534;2023-03-01T01:46:44;18.33;;;13.25;;
63320;SDS011;49449;48.800;9.534;2023-03-01T01:51:47;16.30;;;12.45;;
63320;SDS011;49449;48.800;9.534;2023-03-01T01:54:18;18.02;;;12.95;;
63320;SDS011;49449;48.800;9.534;2023-03-01T01:56:50;17.63;;;12.88;;
63320;SDS011;49449;48.800;9.534;2023-03-01T01:59:24;15.38;;;10.40;;
63320;SDS011;49449;48.800;9.534;2023-03-01T02:01:52;14.77;;;10.40;;
63320;SDS011;49449;48.800;9.534;2023-03-01T02:04:20;16.48;;;12.07;;
63320;SDS011;49449;48.800;9.534;2023-03-01T02:06:51;16.48;;;11.35;;
63320;SDS011;49449;48.800;9.534;2023-03-01T02:09:25;16.35;;;10.40;;
63320;SDS011;49449;48.800;9.534;2023-03-01T02:11:54;19.48;;;12.25;;
63320;SDS011;49449;48.800;9.534;2023-03-01T02:14:23;14.27;;;11.00;;
63320;SDS011;49449;48.800;9.534;2023-03-01T02:16:51;11.93;;;8.88;;
63320;SDS011;49449;48.800;9.534;2023-03-01T02:19:22;14.77;;;11.23;;
63320;SDS011;49449;48.800;9.534;2023-03-01T02:22:00;14.50;;;10.25;;
63320;SDS011;49449;48.800;9.534;2023-03-01T02:24:35;16.02;;;10.35;;
63320;SDS011;49449;48.800;9.534;2023-03-01T02:27:14;14.63;;;10.52;;
63320;SDS011;49449;48.800;9.534;2023-03-01T02:29:45;16.75;;;10.90;;
63320;SDS011;49449;48.800;9.534;2023-03-01T02:32:13;14.98;;;10.00;;
63320;SDS011;49449;48.800;9.534;2023-03-01T02:34:42;14.52;;;10.82;;
63320;SDS011;49449;48.800;9.534;2023-03-01T02:37:11;15.25;;;10.55;;
63320;SDS011;49449;48.800;9.534;2023-03-01T02:39:43;14.15;;;10.35;;
63320;SDS011;49449;48.800;9.534;2023-03-01T02:42:15;15.18;;;10.57;;
63320;SDS011;49449;48.800;9.534;2023-03-01T02:44:49;13.63;;;9.82;;
63320;SDS011;49449;48.800;9.534;2023-03-01T02:47:17;15.63;;;11.85;;
63320;SDS011;49449;48.800;9.534;2023-03-01T02:49:45;14.45;;;10.10;;
63320;SDS011;49449;48.800;9.534;2023-03-01T02:52:24;14.68;;;10.65;;
63320;SDS011;49449;48.800;9.534;2023-03-01T02:55:01;13.52;;;10.18;;
63320;SDS011;49449;48.800;9.534;2023-03-01T02:57:32;13.35;;;10.45;;
63320;SDS011;49449;48.800;9.534;2023-03-01T03:00:04;14.90;;;11.38;;
63320;SDS011;49449;48.800;9.534;2023-03-01T03:02:35;14.10;;;10.27;;
63320;SDS011;49449;48.800;9.534;2023-03-01T03:05:04;15.32;;;10.85;;
63320;SDS011;49449;48.800;9.534;2023-03-01T03:07:35;14.15;;;9.93;;
63320;SDS011;49449;48.800;9.534;2023-03-01T03:10:05;14.75;;;10.57;;
63320;SDS011;49449;48.800;9.534;2023-03-01T03:12:37;15.32;;;11.32;;
63320;SDS011;49449;48.800;9.534;2023-03-01T03:15:07;13.82;;;10.15;;
63320;SDS011;49449;48.800;9.534;2023-03-01T03:17:39;14.15;;;10.50;;
63320;SDS011;49449;48.800;9.534;2023-03-01T03:22:45;15.60;;;10.35;;
63320;SDS011;49449;48.800;9.534;2023-03-01T03:25:13;14.90;;;11.30;;
63320;SDS011;49449;48.800;9.534;2023-03-01T03:27:42;16.38;;;11.10;;
63320;SDS011;49449;48.800;9.534;2023-03-01T03:30:14;16.10;;;11.23;;
63320;SDS011;49449;48.800;9.534;2023-03-01T03:32:44;17.95;;;11.68;;
63320;SDS011;49449;48.800;9.534;2023-03-01T03:35:18;15.23;;;10.85;;
63320;SDS011;49449;48.800;9.534;2023-03-01T03:37:47;15.50;;;11.13;;
63320;SDS011;49449;48.800;9.534;2023-03-01T03:40:33;14.10;;;10.98;;
63320;SDS011;49449;48.800;9.534;2023-03-01T03:43:02;15.50;;;12.02;;
63320;SDS011;49449;48.800;9.534;2023-03-01T03:45:32;15.15;;;10.43;;
63320;SDS011;49449;48.800;9.534;2023-03-01T03:48:02;17.30;;;11.55;;
63320;SDS011;49449;48.800;9.534;2023-03-01T03:50:32;14.82;;;10.82;;
63320;SDS011;49449;48.800;9.534;2023-03-01T03:53:00;17.00;;;11.65;;
63320;SDS011;49449;48.800;9.534;2023-03-01T03:55:29;16.13;;;10.90;;
63320;SDS011;49449;48.800;9.534;2023-03-01T03:58:00;17.60;;;11.50;;
63320;SDS011;49449;48.800;9.534;2023-03-01T04:00:35;14.60;;;10.63;;
63320;SDS011;49449;48.800;9.534;2023-03-01T04:03:04;16.67;;;11.63;;
63320;SDS011;49449;48.800;9.534;2023-03-01T04:05:32;15.20;;;11.15;;
63320;SDS011;49449;48.800;9.534;2023-03-01T04:08:00;14.98;;;10.90;;
63320;SDS011;49449;48.800;9.534;2023-03-01T04:10:34;15.55;;;11.18;;
63320;SDS011;49449;48.800;9.534;2023-03-01T04:13:03;14.68;;;10.85;;
63320;SDS011;49449;48.800;9.534;2023-03-01T04:15:32;15.88;;;10.98;;
63320;SDS011;49449;48.800;9.534;2023-03-01T04:18:01;15.50;;;11.70;;
63320;SDS011;49449;48.800;9.534;2023-03-01T04:20:30;13.75;;;10.65;;
63320;SDS011;49449;48.800;9.534;2023-03-01T04:23:02;15.38;;;11.18;;
63320;SDS011;49449;48.800;9.534;2023-03-01T04:25:37;14.77;;;11.60;;
63320;SDS011;49449;48.800;9.534;2023-03-01T04:28:06;15.77;;;11.73;;
63320;SDS011;49449;48.800;9.534;2023-03-01T04:30:34;14.55;;;10.98;;
63320;SDS011;49449;48.800;9.534;2023-03-01T04:33:04;16.83;;;11.63;;
63320;SDS011;49449;48.800;9.534;2023-03-01T04:35:33;16.92;;;12.50;;
63320;SDS011;49449;48.800;9.534;2023-03-01T04:38:03;15.90;;;11.98;;
63320;SDS011;49449;48.800;9.534;2023-03-01T04:40:31;15.52;;;10.80;;
63320;SDS011;49449;48.800;9.534;2023-03-01T04:42:59;14.60;;;11.02;;
63320;SDS011;49449;48.800;9.534;2023-03-01T04:45:27;16.40;;;11.43;;
63320;SDS011;49449;48.800;9.534;2023-03-01T04:47:55;16.50;;;11.40;;
63320;SDS011;49449;48.800;9.534;2023-03-01T04:50:25;15.35;;;11.63;;
63320;SDS011;49449;48.800;9.534;2023-03-01T04:52:53;16.92;;;11.68;;
63320;SDS011;49449;48.800;9.534;2023-03-01T04:55:25;14.40;;;11.73;;
63320;SDS011;49449;48.800;9.534;2023-03-01T04:57:54;15.95;;;11.50;;
63320;SDS011;49449;48.800;9.534;2023-03-01T05:00:22;14.98;;;10.60;;
63320;SDS011;49449;48.800;9.534;2023-03-01T05:02:52;19.33;;;12.00;;
63320;SDS011;49449;48.800;9.534;2023-03-01T05:05:22;16.67;;;12.38;;
63320;SDS011;49449;48.800;9.534;2023-03-01T05:07:54;16.58;;;12.23;;
63320;SDS011;49449;48.800;9.534;2023-03-01T05:10:24;17.88;;;12.38;;
63320;SDS011;49449;48.800;9.534;2023-03-01T05:12:55;17.23;;;12.98;;
63320;SDS011;49449;48.800;9.534;2023-03-01T05:15:25;18.60;;;12.90;;
63320;SDS011;49449;48.800;9.534;2023-03-01T05:17:54;17.95;;;11.75;;
63320;SDS011;49449;48.800;9.534;2023-03-01T05:20:24;15.95;;;11.65;;
63320;SDS011;49449;48.800;9.534;2023-03-01T05:22:54;17.25;;;12.70;;
63320;SDS011;49449;48.800;9.534;2023-03-01T05:25:25;18.65;;;13.80;;
63320;SDS011;49449;48.800;9.534;2023-03-01T05:27:53;15.35;;;10.68;;
63320;SDS011;49449;48.800;9.534;2023-03-01T05:30:20;18.60;;;12.55;;
63320;SDS011;49449;48.800;9.534;2023-03-01T05:32:49;16.63;;;12.18;;
63320;SDS011;49449;48.800;9.534;2023-03-01T05:35:21;15.45;;;11.15;;
63320;SDS011;49449;48.800;9.534;2023-03-01T05:37:50;16.63;;;12.57;;
63320;SDS011;49449;48.800;9.534;2023-03-01T05:40:20;16.55;;;11.32;;
63320;SDS011;49449;48.800;9.534;2023-03-01T05:42:51;16.20;;;11.77;;
63320;SDS011;49449;48.800;9.534;2023-03-01T05:45:21;15.93;;;11.43;;
63320;SDS011;49449;48.800;9.534;2023-03-01T05:47:50;16.83;;;11.88;;
63320;SDS011;49449;48.800;9.534;2023-03-01T05:50:19;16.25;;;11.65;;
63320;SDS011;49449;48.800;9.534;2023-03-01T05:52:50;17.20;;;12.43;;
63320;SDS011;49449;48.800;9.534;2023-03-01T05:55:21;17.73;;;12.40;;
63320;SDS011;49449;48.800;9.534;2023-03-01T05:57:49;16.85;;;11.57;;
63320;SDS011;49449;48.800;9.534;2023-03-01T06:00:18;17.45;;;12.55;;
63320;SDS011;49449;48.800;9.534;2023-03-01T06:05:16;18.02;;;12.70;;
63320;SDS011;49449;48.800;9.534;2023-03-01T06:07:45;16.10;;;11.48;;
63320;SDS011;49449;48.800;9.534;2023-03-01T06:10:13;15.60;;;11.13;;
63320;SDS011;49449;48.800;9.534;2023-03-01T06:12:42;15.25;;;11.60;;
63320;SDS011;49449;48.800;9.534;2023-03-01T06:15:11;17.95;;;13.15;;
63320;SDS011;49449;48.800;9.534;2023-03-01T06:17:40;15.95;;;11.18;;
63320;SDS011;49449;48.800;9.534;2023-03-01T06:20:10;16.70;;;12.85;;
63320;SDS011;49449;48.800;9.534;2023-03-01T06:22:40;18.48;;;12.15;;
63320;SDS011;49449;48.800;9.534;2023-03-01T06:25:08;19.25;;;12.23;;
63320;SDS011;49449;48.800;9.534;2023-03-01T06:27:43;18.70;;;12.88;;
63320;SDS011;49449;48.800;9.534;2023-03-01T06:30:13;17.83;;;12.00;;
63320;SDS011;49449;48.800;9.534;2023-03-01T06:32:42;16.95;;;11.93;;
63320;SDS011;49449;48.800;9.534;2023-03-01T06:35:11;18.38;;;13.35;;
63320;SDS011;49449;48.800;9.534;2023-03-01T06:37:40;18.58;;;13.57;;
63320;SDS011;49449;48.800;9.534;2023-03-01T06:40:09;17.73;;;11.63;;
63320;SDS011;49449;48.800;9.534;2023-03-01T06:42:40;16.73;;;11.38;;
63320;SDS011;49449;48.800;9.534;2023-03-01T06:45:11;19.73;;;12.95;;
63320;SDS011;49449;48.800;9.534;2023-03-01T06:47:39;18.05;;;13.02;;
63320;SDS011;49449;48.800;9.534;2023-03-01T06:50:07;20.00;;;13.32;;
63320;SDS011;49449;48.800;9.534;2023-03-01T06:52:36;17.63;;;13.35;;
63320;SDS011;49449;48.800;9.534;2023-03-01T06:55:04;18.88;;;13.38;;
63320;SDS011;49449;48.800;9.534;2023-03-01T06:57:32;18.00;;;12.85;;
63320;SDS011;49449;48.800;9.534;2023-03-01T07:00:00;19.55;;;12.88;;
63320;SDS011;49449;48.800;9.534;2023-03-01T07:02:30;19.63;;;13.43;;
63320;SDS011;49449;48.800;9.534;2023-03-01T07:04:57;20.85;;;14.10;;
63320;SDS011;49449;48.800;9.534;2023-03-01T07:07:25;19.60;;;13.82;;
63320;SDS011;49449;48.800;9.534;2023-03-01T07:09:53;21.27;;;13.75;;
63320;SDS011;49449;48.800;9.534;2023-03-01T07:12:21;18.70;;;14.23;;
63320;SDS011;49449;48.800;9.534;2023-03-01T07:14:48;22.02;;;15.95;;
63320;SDS011;49449;48.800;9.534;2023-03-01T07:17:16;24.10;;;17.02;;
63320;SDS011;49449;48.800;9.534;2023-03-01T07:19:46;21.02;;;14.75;;
63320;SDS011;49449;48.800;9.534;2023-03-01T07:22:14;21.98;;;14.32;;
63320;SDS011;49449;48.800;9.534;2023-03-01T07:24:41;19.67;;;13.85;;
63320;SDS011;49449;48.800;9.534;2023-03-01T07:27:10;18.75;;;13.57;;
63320;SDS011;49449;48.800;9.534;2023-03-01T07:29:38;18.10;;;13.27;;
63320;SDS011;49449;48.800;9.534;2023-03-01T07:32:06;17.38;;;12.95;;
63320;SDS011;49449;48.800;9.534;2023-03-01T07:34:34;21.45;;;14.05;;
63320;SDS011;49449;48.800;9.534;2023-03-01T07:37:03;19.20;;;13.63;;
63320;SDS011;49449;48.800;9.534;2023-03-01T07:39:30;19.50;;;14.35;;
63320;SDS011;49449;48.800;9.534;2023-03-01T07:41:58;18.45;;;14.38;;
63320;SDS011;49449;48.800;9.534;2023-03-01T07:44:26;18.85;;;13.63;;
63320;SDS011;49449;48.800;9.534;2023-03-01T07:46:54;20.15;;;14.77;;
63320;SDS011;49449;48.800;9.534;2023-03-01T07:49:24;20.95;;;14.68;;
63320;SDS011;49449;48.800;9.534;2023-03-01T07:51:52;20.75;;;14.55;;
63320;SDS011;49449;48.800;9.534;2023-03-01T07:54:21;18.17;;;12.98;;
63320;SDS011;49449;48.800;9.534;2023-03-01T07:56:49;19.38;;;14.52;;
63320;SDS011;49449;48.800;9.534;2023-03-01T07:59:17;19.20;;;14.13;;
63320;SDS011;49449;48.800;9.534;2023-03-01T08:01:45;20.15;;;14.57;;
63320;SDS011;49449;48.800;9.534;2023-03-01T08:04:12;19.08;;;13.50;;
63320;SDS011;49449;48.800;9.534;2023-03-01T08:06:40;18.08;;;14.57;;
63320;SDS011;49449;48.800;9.534;2023-03-01T08:09:08;18.77;;;14.65;;
63320;SDS011;49449;48.800;9.534;2023-03-01T08:11:37;19.80;;;14.50;;
63320;SDS011;49449;48.800;9.534;2023-03-01T08:14:05;18.52;;;14.43;;
63320;SDS011;49449;48.800;9.534;2023-03-01T08:16:33;16.75;;;13.85;;
63320;SDS011;49449;48.800;9.534;2023-03-01T08:19:03;18.23;;;14.38;;
63320;SDS011;49449;48.800;9.534;2023-03-01T08:21:31;22.58;;;15.73;;
63320;SDS011;49449;48.800;9.534;2023-03-01T08:24:00;20.40;;;14.82;;
63320;SDS011;49449;48.800;9.534;2023-03-01T08:26:28;19.38;;;14.10;;
63320;SDS011;49449;48.800;9.534;2023-03-01T08:28:59;21.15;;;15.20;;
63320;SDS011;49449;48.800;9.534;2023-03-01T08:31:28;17.92;;;12.75;;
63320;SDS011;49449;48.800;9.534;2023-03-01T08:33:58;20.60;;;14.55;;
63320;SDS011;49449;48.800;9.534;2023-03-01T08:36:28;18.00;;;12.55;;
63320;SDS011;49449;48.800;9.534;2023-03-01T08:38:59;19.92;;;14.25;;
63320;SDS011;49449;48.800;9.534;2023-03-01T08:41:27;20.73;;;14.25;;
63320;SDS011;49449;48.800;9.534;2023-03-01T08:43:56;19.02;;;14.27;;
63320;SDS011;49449;48.800;9.534;2023-03-01T08:46:27;19.38;;;14.23;;
63320;SDS011;49449;48.800;9.534;2023-03-01T08:48:56;17.65;;;13.75;;
63320;SDS011;49449;48.800;9.534;2023-03-01T08:51:25;20.05;;;13.45;;
63320;SDS011;49449;48.800;9.534;2023-03-01T08:53:53;17.38;;;12.98;;
63320;SDS011;49449;48.800;9.534;2023-03-01T08:56:21;18.92;;;14.20;;
63320;SDS011;49449;48.800;9.534;2023-03-01T08:58:49;19.50;;;14.23;;
63320;SDS011;49449;48.800;9.534;2023-03-01T09:01:17;16.98;;;13.65;;
63320;SDS011;49449;48.800;9.534;2023-03-01T09:03:47;17.08;;;12.93;;
63320;SDS011;49449;48.800;9.534;2023-03-01T09:06:15;17.63;;;13.82;;
63320;SDS011;49449;48.800;9.534;2023-03-01T09:08:44;17.92;;;14.02;;
63320;SDS011;49449;48.800;9.534;2023-03-01T09:11:13;19.95;;;14.90;;
63320;SDS011;49449;48.800;9.534;2023-03-01T09:13:43;19.85;;;14.65;;
63320;SDS011;49449;48.800;9.534;2023-03-01T09:16:12;17.95;;;13.73;;
63320;SDS011;49449;48.800;9.534;2023-03-01T09:18:40;19.70;;;13.88;;
63320;SDS011;49449;48.800;9.534;2023-03-01T09:21:10;19.75;;;14.60;;
63320;SDS011;49449;48.800;9.534;2023-03-01T09:23:41;18.85;;;14.10;;
63320;SDS011;49449;48.800;9.534;2023-03-01T09:26:11;20.25;;;13.80;;
63320;SDS011;49449;48.800;9.534;2023-03-01T09:28:40;19.30;;;14.88;;
63320;SDS011;49449;48.800;9.534;2023-03-01T09:31:08;19.30;;;14.50;;
63320;SDS011;49449;48.800;9.534;2023-03-01T09:33:39;19.33;;;13.57;;
63320;SDS011;49449;48.800;9.534;2023-03-01T09:36:10;19.95;;;14.95;;
63320;SDS011;49449;48.800;9.534;2023-03-01T09:38:40;19.27;;;14.57;;
63320;SDS011;49449;48.800;9.534;2023-03-01T09:41:15;18.05;;;13.55;;
63320;SDS011;49449;48.800;9.534;2023-03-01T09:43:54;20.27;;;14.30;;
63320;SDS011;49449;48.800;9.534;2023-03-01T09:46:25;18.60;;;14.57;;
63320;SDS011;49449;48.800;9.534;2023-03-01T09:48:55;19.90;;;14.48;;
63320;SDS011;49449;48.800;9.534;2023-03-01T09:51:29;18.52;;;13.30;;
63320;SDS011;49449;48.800;9.534;2023-03-01T09:53:58;19.27;;;14.35;;
63320;SDS011;49449;48.800;9.534;2023-03-01T09:56:30;17.60;;;13.93;;
63320;SDS011;49449;48.800;9.534;2023-03-01T09:59:03;17.48;;;13.10;;
63320;SDS011;49449;48.800;9.534;2023-03-01T10:01:46;18.80;;;14.25;;
63320;SDS011;49449;48.800;9.534;2023-03-01T10:04:26;18.23;;;13.48;;
63320;SDS011;49449;48.800;9.534;2023-03-01T10:07:07;18.35;;;13.68;;
63320;SDS011;49449;48.800;9.534;2023-03-01T10:09:53;20.00;;;14.75;;
63320;SDS011;49449;48.800;9.534;2023-03-01T10:12:22;18.83;;;14.55;;
63320;SDS011;49449;48.800;9.534;2023-03-01T10:14:55;18.63;;;14.10;;
63320;SDS011;49449;48.800;9.534;2023-03-01T10:17:30;18.48;;;13.77;;
63320;SDS011;49449;48.800;9.534;2023-03-01T10:20:11;17.30;;;13.50;;
63320;SDS011;49449;48.800;9.534;2023-03-01T10:22:45;18.90;;;13.85;;
63320;SDS011;49449;48.800;9.534;2023-03-01T10:25:20;17.13;;;13.30;;
63320;SDS011;49449;48.800;9.534;2023-03-01T10:27:59;17.98;;;13.15;;
63320;SDS011;49449;48.800;9.534;2023-03-01T10:30:32;16.88;;;12.77;;
63320;SDS011;49449;48.800;9.534;2023-03-01T10:33:07;18.42;;;13.48;;
63320;SDS011;49449;48.800;9.534;2023-03-01T10:35:43;17.48;;;13.15;;
63320;SDS011;49449;48.800;9.534;2023-03-01T10:38:13;17.52;;;13.77;;
63320;SDS011;49449;48.800;9.534;2023-03-01T10:40:52;16.67;;;13.23;;
63320;SDS011;49449;48.800;9.534;2023-03-01T10:43:23;18.63;;;13.43;;
63320;SDS011;49449;48.800;9.534;2023-03-01T10:45:52;15.93;;;12.52;;
63320;SDS011;49449;48.800;9.534;2023-03-01T10:48:21;20.20;;;13.23;;
63320;SDS011;49449;48.800;9.534;2023-03-01T10:51:05;15.73;;;12.63;;
63320;SDS011;49449;48.800;9.534;2023-03-01T10:53:36;17.20;;;12.23;;
63320;SDS011;49449;48.800;9.534;2023-03-01T10:56:09;15.70;;;12.75;;
63320;SDS011;49449;48.800;9.534;2023-03-01T10:58:38;16.58;;;13.43;;
63320;SDS011;49449;48.800;9.534;2023-03-01T11:04:09;19.02;;;12.75;;
63320;SDS011;49449;48.800;9.534;2023-03-01T11:09:14;15.75;;;11.82;;
63320;SDS011;49449;48.800;9.534;2023-03-01T11:11:43;15.48;;;12.32;;
63320;SDS011;49449;48.800;9.534;2023-03-01T11:14:13;18.02;;;12.13;;
63320;SDS011;49449;48.800;9.534;2023-03-01T11:16:58;16.55;;;11.90;;
63320;SDS011;49449;48.800;9.534;2023-03-01T11:19:27;16.15;;;12.13;;
63320;SDS011;49449;48.800;9.534;2023-03-01T11:21:58;16.55;;;12.57;;
63320;SDS011;49449;48.800;9.534;2023-03-01T11:24:31;15.95;;;12.02;;
63320;SDS011;49449;48.800;9.534;2023-03-01T11:27:04;15.35;;;12.32;;
63320;SDS011;49449;48.800;9.534;2023-03-01T11:29:40;16.05;;;11.85;;
63320;SDS011;49449;48.800;9.534;2023-03-01T11:32:14;16.05;;;12.07;;
63320;SDS011;49449;48.800;9.534;2023-03-01T11:34:43;16.40;;;12.25;;
63320;SDS011;49449;48.800;9.534;2023-03-01T11:37:19;17.52;;;13.98;;
63320;SDS011;49449;48.800;9.534;2023-03-01T11:40:03;18.10;;;12.40;;
63320;SDS011;49449;48.800;9.534;2023-03-01T11:42:46;14.60;;;11.50;;
63320;SDS011;49449;48.800;9.534;2023-03-01T11:45:22;16.73;;;12.15;;
63320;SDS011;49449;48.800;9.534;2023-03-01T11:47:55;18.55;;;13.38;;
63320;SDS011;49449;48.800;9.534;2023-03-01T11:50:35;16.55;;;12.55;;
63320;SDS011;49449;48.800;9.534;2023-03-01T11:53:23;17.45;;;13.52;;
63320;SDS011;49449;48.800;9.534;2023-03-01T11:56:08;16.13;;;12.10;;
63320;SDS011;49449;48.800;9.534;2023-03-01T11:58:55;20.27;;;14.90;;
63320;SDS011;49449;48.800;9.534;2023-03-01T12:01:32;16.42;;;11.98;;
63320;SDS011;49449;48.800;9.534;2023-03-01T12:04:17;17.67;;;13.75;;
63320;SDS011;49449;48.800;9.534;2023-03-01T12:07:01;14.75;;;12.52;;
63320;SDS011;49449;48.800;9.534;2023-03-01T12:09:45;18.13;;;13.15;;
63320;SDS011;49449;48.800;9.534;2023-03-01T12:12:32;16.20;;;13.48;;
63320;SDS011;49449;48.800;9.534;2023-03-01T12:17:56;17.83;;;12.35;;
63320;SDS011;49449;48.800;9.534;2023-03-01T12:20:34;18.85;;;12.85;;
63320;SDS011;49449;48.800;9.534;2023-03-01T12:23:16;16.90;;;14.60;;
63320;SDS011;49449;48.800;9.534;2023-03-01T12:26:06;15.13;;;10.73;;
63320;SDS011;49449;48.800;9.534;2023-03-01T12:28:51;17.90;;;13.55;;
63320;SDS011;49449;48.800;9.534;2023-03-01T12:34:41;16.65;;;12.57;;
63320;SDS011;49449;48.800;9.534;2023-03-01T12:37:29;17.58;;;13.43;;
63320;SDS011;49449;48.800;9.534;2023-03-01T12:40:18;17.60;;;12.98;;
63320;SDS011;49449;48.800;9.534;2023-03-01T12:42:58;17.00;;;12.40;;
63320;SDS011;49449;48.800;9.534;2023-03-01T12:45:42;14.77;;;12.20;;
63320;SDS011;49449;48.800;9.534;2023-03-01T12:48:24;17.02;;;12.48;;
63320;SDS011;49449;48.800;9.534;2023-03-01T12:51:01;14.07;;;11.23;;
63320;SDS011;49449;48.800;9.534;2023-03-01T12:53:34;15.10;;;11.73;;
63320;SDS011;49449;48.800;9.534;2023-03-01T12:56:05;18.08;;;12.82;;
63320;SDS011;49449;48.800;9.534;2023-03-01T12:58:39;15.15;;;11.57;;
63320;SDS011;49449;48.800;9.534;2023-03-01T13:12:49;15.48;;;11.65;;
63320;SDS011;49449;48.800;9.534;2023-03-01T13:15:27;17.25;;;13.95;;
63320;SDS011;49449;48.800;9.534;2023-03-01T13:17:57;15.32;;;11.68;;
63320;SDS011;49449;48.800;9.534;2023-03-01T13:20:27;14.20;;;11.60;;
63320;SDS011;49449;48.800;9.534;2023-03-01T13:23:03;15.10;;;11.55;;
63320;SDS011;49449;48.800;9.534;2023-03-01T13:25:34;17.13;;;11.85;;
63320;SDS011;49449;48.800;9.534;2023-03-01T13:34:44;13.15;;;9.75;;
63320;SDS011;49449;48.800;9.534;2023-03-01T13:37:31;15.68;;;11.68;;
63320;SDS011;49449;48.800;9.534;2023-03-01T13:40:05;16.25;;;12.07;;
63320;SDS011;49449;48.800;9.534;2023-03-01T13:42:49;14.13;;;11.63;;
63320;SDS011;49449;48.800;9.534;2023-03-01T13:45:34;17.83;;;12.90;;
63320;SDS011;49449;48.800;9.534;2023-03-01T13:48:08;16.52;;;12.70;;
63320;SDS011;49449;48.800;9.534;2023-03-01T13:50:38;15.90;;;12.07;;
63320;SDS011;49449;48.800;9.534;2023-03-01T13:53:16;14.93;;;11.73;;
63320;SDS011;49449;48.800;9.534;2023-03-01T13:55:46;16.02;;;12.55;;
63320;SDS011;49449;48.800;9.534;2023-03-01T13:58:16;15.35;;;12.23;;
63320;SDS011;49449;48.800;9.534;2023-03-01T14:00:54;17.33;;;12.32;;
63320;SDS011;49449;48.800;9.534;2023-03-01T14:03:23;16.95;;;12.35;;
63320;SDS011;49449;48.800;9.534;2023-03-01T14:06:02;18.42;;;12.90;;
63320;SDS011;49449;48.800;9.534;2023-03-01T14:08:40;18.50;;;13.85;;
63320;SDS011;49449;48.800;9.534;2023-03-01T14:14:06;18.83;;;11.15;;
63320;SDS011;49449;48.800;9.534;2023-03-01T14:16:48;19.70;;;13.98;;
63320;SDS011;49449;48.800;9.534;2023-03-01T14:19:26;19.38;;;13.82;;
63320;SDS011;49449;48.800;9.534;2023-03-01T14:21:59;15.85;;;12.23;;
63320;SDS011;49449;48.800;9.534;2023-03-01T14:24:44;16.08;;;11.85;;
63320;SDS011;49449;48.800;9.534;2023-03-01T14:27:15;15.35;;;11.88;;
63320;SDS011;49449;48.800;9.534;2023-03-01T14:29:44;15.45;;;12.35;;
63320;SDS011;49449;48.800;9.534;2023-03-01T14:32:24;17.00;;;12.25;;
63320;SDS011;49449;48.800;9.534;2023-03-01T14:34:53;16.77;;;12.82;;
63320;SDS011;49449;48.800;9.534;2023-03-01T14:37:23;17.02;;;12.70;;
63320;SDS011;49449;48.800;9.534;2023-03-01T14:39:53;14.90;;;12.30;;
63320;SDS011;49449;48.800;9.534;2023-03-01T14:42:23;16.02;;;12.10;;
63320;SDS011;49449;48.800;9.534;2023-03-01T14:44:54;18.00;;;12.50;;
63320;SDS011;49449;48.800;9.534;2023-03-01T14:47:25;15.98;;;12.55;;
63320;SDS011;49449;48.800;9.534;2023-03-01T14:49:57;16.63;;;13.52;;
63320;SDS011;49449;48.800;9.534;2023-03-01T14:52:30;17.00;;;12.80;;
63320;SDS011;49449;48.800;9.534;2023-03-01T14:55:02;15.55;;;11.73;;
63320;SDS011;49449;48.800;9.534;2023-03-01T14:57:33;17.95;;;13.30;;
63320;SDS011;49449;48.800;9.534;2023-03-01T15:00:01;17.85;;;12.13;;
63320;SDS011;49449;48.800;9.534;2023-03-01T15:02:32;16.75;;;13.23;;
63320;SDS011;49449;48.800;9.534;2023-03-01T15:05:02;18.20;;;12.85;;
63320;SDS011;49449;48.800;9.534;2023-03-01T15:07:35;18.83;;;15.10;;
63320;SDS011;49449;48.800;9.534;2023-03-01T15:10:11;17.10;;;11.93;;
63320;SDS011;49449;48.800;9.534;2023-03-01T15:12:46;17.30;;;12.75;;
63320;SDS011;49449;48.800;9.534;2023-03-01T15:15:21;17.30;;;12.45;;
63320;SDS011;49449;48.800;9.534;2023-03-01T15:17:59;18.35;;;12.63;;
63320;SDS011;49449;48.800;9.534;2023-03-01T15:20:29;18.38;;;12.25;;
63320;SDS011;49449;48.800;9.534;2023-03-01T15:23:01;17.25;;;13.43;;
63320;SDS011;49449;48.800;9.534;2023-03-01T15:25:31;15.00;;;11.00;;
63320;SDS011;49449;48.800;9.534;2023-03-01T15:28:00;15.18;;;10.40;;